Aérodrome :
LOGIN :

S'inscrire | Disclaimer

   EN    FR    IT 

 










Légende :    VFR   VFR Marginal   IFR   IFR Intensif   IFR Très Intensif
Visi : 
Plafond : 
>= 8 km
>= 3000ft
5 à 8 km
1000 à 3000 ft
1500m à 5 km
500 à 1000 ft
800 à 1500m
200 à 500 ft
< 800m
< 200 ft
Symboles :   Orages  Brouillard  Fortes neiges  Fortes précipitations  Vent > 20 kt
SIGMETs :   Divers  Orages  Givrage  Turbulence  Onde Orograph.  Cendres Volcan.







- Altitude de l'aérodrome : 3368 ft


LSGC - Les Eplatures

DERNIER METAR :
  • 170820Z VRB02KT CAVOK 17/09 Q1022

METARs EXPIRÉS :
  • 170750Z 19001KT CAVOK 15/10 Q1022
  • 170720Z 22002KT CAVOK 12/09 Q1022
  • 170650Z 00000KT CAVOK 12/09 Q1022
  • 170620Z 00000KT CAVOK 11/08 Q1021
  • 170550Z AUTO 24002KT 9999 NCD 10/06 Q1021

TAF TAF LSGC
Valide du 17 à 06h jusqu'au 17 à 15h UTC


170525Z 1706/1715 VRB03KT CAVOK
BECMG 1711/1713 9999 FEW040
Pas de NOTAMs connus pour ce terrain.



MET'MAP, la Météo Aéronautique d'un coup d'oeil ! - Copyright ORBIFLY Décembre 2007 - Disclaimer

ORBIFLY MET'MAP TEAM :

Programmation & Développement : Alexandra Zaïnal
Conception & Développement : Baudouin d'Aumeries
Co-Programmation & Développement : Marc-Olivier Méhu
Soutien technique & logistique : Manuel Goepfert

Contact : metmap@orbifly.com




SOURCES & CREDITS :

   NOAA